createdAt,value
2019-03-17T00:01:56.992Z,99.90
2019-03-17T00:04:30.969Z,99.90
2019-03-17T00:06:50.929Z,99.90
2019-03-17T00:09:18.570Z,99.90
2019-03-17T00:11:46.255Z,99.90
2019-03-17T00:14:14.001Z,99.90
2019-03-17T00:16:41.618Z,99.90
2019-03-17T00:19:09.216Z,99.90
2019-03-17T00:21:36.863Z,99.90
2019-03-17T00:24:04.514Z,99.90
2019-03-17T00:26:32.118Z,99.90
2019-03-17T00:28:59.757Z,99.90
2019-03-17T00:31:27.364Z,99.90
2019-03-17T00:33:54.970Z,99.90
2019-03-17T00:36:22.565Z,99.90
2019-03-17T00:38:50.198Z,99.90
2019-03-17T00:41:17.769Z,99.90
2019-03-17T00:43:45.424Z,99.90
2019-03-17T00:46:13.168Z,99.90
2019-03-17T00:48:40.761Z,99.90
2019-03-17T00:51:08.344Z,99.90
2019-03-17T00:53:35.929Z,99.90
2019-03-17T00:56:03.571Z,99.90
2019-03-17T00:58:31.264Z,99.90
2019-03-17T01:00:58.868Z,99.90
2019-03-17T01:03:26.571Z,99.90
2019-03-17T01:05:54.187Z,99.90
2019-03-17T01:08:21.810Z,99.90
2019-03-17T01:10:49.404Z,99.90
2019-03-17T01:13:17.110Z,99.90
2019-03-17T01:15:44.701Z,99.90
2019-03-17T01:18:12.361Z,99.90
2019-03-17T01:20:40.228Z,99.90
2019-03-17T01:23:07.828Z,99.90
2019-03-17T01:25:35.400Z,99.90
2019-03-17T01:28:03.008Z,99.90
2019-03-17T01:30:30.601Z,99.90
2019-03-17T01:32:58.235Z,99.90
2019-03-17T01:35:25.981Z,99.90
2019-03-17T01:37:53.609Z,99.90
2019-03-17T01:40:21.216Z,99.90
2019-03-17T01:42:48.784Z,99.90
2019-03-17T01:45:16.406Z,99.90
2019-03-17T01:47:43.998Z,99.90
2019-03-17T01:50:11.580Z,99.90
2019-03-17T01:52:39.197Z,99.90
2019-03-17T02:35:58.020Z,99.90
2019-03-17T02:38:26.298Z,99.90
2019-03-17T02:41:00.211Z,99.90
2019-03-17T02:43:28.016Z,99.90
2019-03-17T02:46:03.716Z,99.90
2019-03-17T02:48:31.970Z,99.90
2019-03-17T02:51:02.247Z,99.90
2019-03-17T02:53:32.805Z,99.90
2019-03-17T02:56:07.383Z,99.90
2019-03-17T02:58:35.748Z,99.90
2019-03-17T03:01:03.724Z,99.90
2019-03-17T03:03:31.285Z,99.90
2019-03-17T03:05:58.841Z,99.90
2019-03-17T03:08:26.419Z,99.90
2019-03-17T03:10:54.375Z,99.90
2019-03-17T03:13:21.959Z,99.90
2019-03-17T03:15:49.532Z,99.90
2019-03-17T03:18:17.129Z,99.90
2019-03-17T03:20:44.730Z,99.90
2019-03-17T03:23:12.302Z,99.90
2019-03-17T03:25:40.015Z,99.90
2019-03-17T03:28:07.694Z,99.90
2019-03-17T03:30:35.384Z,99.90
2019-03-17T03:33:03.016Z,99.90
2019-03-17T03:35:30.620Z,99.90
2019-03-17T03:37:58.242Z,99.90
2019-03-17T03:40:25.858Z,99.90
2019-03-17T03:42:53.424Z,99.90
2019-03-17T03:45:21.143Z,99.90
2019-03-17T03:47:48.727Z,99.90
2019-03-17T03:50:16.384Z,99.90
2019-03-17T03:52:43.984Z,99.90
2019-03-17T03:55:11.654Z,99.90
2019-03-17T03:57:39.258Z,99.90
2019-03-17T04:00:07.283Z,99.90
2019-03-17T04:02:34.897Z,99.90
2019-03-17T04:05:02.476Z,99.90
2019-03-17T04:07:30.038Z,99.90
2019-03-17T04:09:57.758Z,99.90
2019-03-17T04:12:25.323Z,99.90
2019-03-17T04:14:53.700Z,99.90
2019-03-17T04:17:21.361Z,99.90
2019-03-17T04:19:48.933Z,99.90
2019-03-17T04:22:16.514Z,99.90
2019-03-17T04:24:44.195Z,99.90
2019-03-17T04:27:11.766Z,99.90
2019-03-17T04:29:39.391Z,99.90
2019-03-17T04:32:06.988Z,99.90
2019-03-17T04:34:34.639Z,99.90
2019-03-17T05:01:20.377Z,99.90
2019-03-17T05:03:47.995Z,99.90
2019-03-17T05:06:15.745Z,99.90
2019-03-17T05:08:43.406Z,99.90
2019-03-17T05:11:11.101Z,99.90
2019-03-17T05:13:38.740Z,99.90
2019-03-17T05:16:06.350Z,99.90
2019-03-17T05:18:33.960Z,99.90
2019-03-17T05:21:01.601Z,99.90
2019-03-17T05:23:29.162Z,99.90
2019-03-17T05:25:56.817Z,99.90
2019-03-17T05:28:24.384Z,99.90
2019-03-17T05:30:51.983Z,99.90
2019-03-17T05:33:19.566Z,99.90
2019-03-17T05:35:47.160Z,99.90
2019-03-17T05:38:14.748Z,99.90
2019-03-17T05:40:42.386Z,99.90
2019-03-17T05:43:09.941Z,99.90
2019-03-17T05:45:37.556Z,99.90
2019-03-17T05:48:05.141Z,99.90
2019-03-17T05:50:32.718Z,99.90
2019-03-17T05:53:00.335Z,99.90
2019-03-17T05:55:27.997Z,99.90
2019-03-17T05:57:55.633Z,99.90
2019-03-17T06:00:23.269Z,99.90
2019-03-17T06:02:50.825Z,99.90
2019-03-17T06:05:18.421Z,99.90
2019-03-17T06:07:46.126Z,99.90
2019-03-17T06:10:13.809Z,99.90
2019-03-17T06:12:41.378Z,99.90
2019-03-17T06:15:09.269Z,99.90
2019-03-17T06:17:36.965Z,99.90
2019-03-17T06:20:05.203Z,98.90
2019-03-17T06:22:32.806Z,98.50
2019-03-17T06:25:00.482Z,97.10
2019-03-17T06:27:28.060Z,97.20
2019-03-17T06:29:55.672Z,95.70
2019-03-17T06:32:23.264Z,96.50
2019-03-17T06:34:50.838Z,94.60
2019-03-17T06:37:30.187Z,92.80
2019-03-17T06:39:47.925Z,91.90
2019-03-17T06:42:15.495Z,90.10
2019-03-17T06:44:43.066Z,89.10
2019-03-17T06:47:10.712Z,87.80
2019-03-17T06:49:38.318Z,87.60
2019-03-17T06:52:05.915Z,87.90
2019-03-17T06:54:33.657Z,86.50
2019-03-17T06:57:01.304Z,85.90
2019-03-17T06:59:28.902Z,85.20
2019-03-17T07:01:56.625Z,84.60
2019-03-17T07:04:24.284Z,83.90
2019-03-17T07:06:51.884Z,82.80
2019-03-17T07:09:19.622Z,85.80
2019-03-17T07:11:47.476Z,86.10
2019-03-17T07:14:15.230Z,87.50
2019-03-17T07:16:43.157Z,88.50
2019-03-17T07:19:10.845Z,88.10
2019-03-17T07:21:38.489Z,87.10
2019-03-17T07:24:06.267Z,85.40
2019-03-17T07:26:34.001Z,85.70
2019-03-17T07:29:01.720Z,85.00
2019-03-17T07:31:29.568Z,83.90
2019-03-17T07:33:57.206Z,81.30
2019-03-17T07:36:24.874Z,78.80
2019-03-17T07:38:52.573Z,77.90
2019-03-17T07:41:20.348Z,76.10
2019-03-17T07:43:48.007Z,76.70
2019-03-17T07:46:15.600Z,77.50
2019-03-17T07:48:43.546Z,78.80
2019-03-17T07:51:11.201Z,79.30
2019-03-17T07:53:38.892Z,78.40
2019-03-17T07:56:06.666Z,78.40
2019-03-17T07:58:34.441Z,78.90
2019-03-17T08:01:02.234Z,78.20
2019-03-17T08:44:51.897Z,66.20
2019-03-17T08:47:22.341Z,64.00
2019-03-17T08:49:49.084Z,61.60
2019-03-17T08:52:16.666Z,61.60
2019-03-17T08:54:44.238Z,61.80
2019-03-17T08:57:11.820Z,59.60
2019-03-17T08:59:39.443Z,58.80
2019-03-17T09:02:08.089Z,57.70
2019-03-17T09:04:35.726Z,57.10
2019-03-17T09:07:03.289Z,56.20
2019-03-17T09:09:31.002Z,55.40
2019-03-17T09:11:58.575Z,54.80
2019-03-17T09:14:26.240Z,55.20
2019-03-17T09:16:53.900Z,55.00
2019-03-17T09:19:25.179Z,54.80
2019-03-17T09:21:53.688Z,53.70
2019-03-17T09:24:21.339Z,54.40
2019-03-17T09:26:48.964Z,53.80
2019-03-17T09:29:16.580Z,53.20
2019-03-17T09:31:44.190Z,52.50
2019-03-17T09:34:11.781Z,52.50
2019-03-17T09:36:39.483Z,52.90
2019-03-17T09:39:07.183Z,53.30
2019-03-17T09:41:34.838Z,53.70
2019-03-17T09:44:02.432Z,54.20
2019-03-17T09:46:30.071Z,52.60
2019-03-17T09:48:57.720Z,51.50
2019-03-17T09:51:25.601Z,51.00
2019-03-17T09:53:53.223Z,51.70
2019-03-17T09:56:20.861Z,50.40
2019-03-17T09:58:48.770Z,50.20
2019-03-17T10:01:16.445Z,51.20
2019-03-17T10:07:15.060Z,51.40
2019-03-17T10:09:46.128Z,52.10
2019-03-17T10:13:19.730Z,54.10
2019-03-17T10:15:47.366Z,55.30
2019-03-17T10:18:15.074Z,54.10
2019-03-17T10:20:42.648Z,52.10
2019-03-17T10:23:10.244Z,52.20
2019-03-17T10:25:37.827Z,52.30
2019-03-17T10:28:05.494Z,51.70
2019-03-17T10:30:33.075Z,49.10
2019-03-17T10:33:00.664Z,50.00
2019-03-17T10:35:28.291Z,50.00
2019-03-17T10:37:56.570Z,49.30
2019-03-17T10:40:28.618Z,49.00
2019-03-17T10:42:56.505Z,49.10
2019-03-17T10:45:24.168Z,48.30
2019-03-17T10:47:54.449Z,50.20
2019-03-17T10:50:21.710Z,50.30
2019-03-17T10:52:49.320Z,50.30
2019-03-17T10:55:17.128Z,48.90
2019-03-17T10:57:44.907Z,47.70
2019-03-17T11:00:13.694Z,48.50
2019-03-17T11:02:41.413Z,47.90
2019-03-17T11:05:09.154Z,47.50
2019-03-17T11:07:36.784Z,46.90
2019-03-17T11:10:04.683Z,47.20
2019-03-17T11:12:32.243Z,47.90
2019-03-17T11:14:59.781Z,46.60
2019-03-17T11:17:27.314Z,46.00
2019-03-17T11:19:54.876Z,46.20
2019-03-17T11:22:22.456Z,45.90
2019-03-17T11:24:49.993Z,45.80
2019-03-17T11:27:17.562Z,46.10
2019-03-17T11:29:45.152Z,45.30
2019-03-17T11:32:12.699Z,45.70
2019-03-17T11:34:40.224Z,45.10
2019-03-17T11:37:07.724Z,44.90
2019-03-17T11:39:38.029Z,44.80
2019-03-17T11:42:04.616Z,44.10
2019-03-17T11:44:32.144Z,43.60
2019-03-17T11:46:59.679Z,43.40
2019-03-17T11:49:27.198Z,42.40
2019-03-17T11:51:54.759Z,41.20
2019-03-17T11:54:22.256Z,40.20
2019-03-17T11:56:49.762Z,40.40
2019-03-17T11:59:17.816Z,41.00
2019-03-17T12:01:45.370Z,40.30
2019-03-17T12:04:12.935Z,40.70
2019-03-17T12:06:40.576Z,40.20
2019-03-17T12:09:08.097Z,40.10
2019-03-17T12:11:35.617Z,41.00
2019-03-17T12:14:03.248Z,41.00
2019-03-17T12:16:30.796Z,41.10
2019-03-17T12:18:58.309Z,41.40
2019-03-17T12:21:25.901Z,41.20
2019-03-17T12:23:53.467Z,41.00
2019-03-17T12:26:21.546Z,41.80
2019-03-17T12:28:49.328Z,42.00
2019-03-17T12:31:16.991Z,41.30
2019-03-17T12:33:44.503Z,42.00
2019-03-17T12:36:12.147Z,41.40
2019-03-17T12:38:39.737Z,41.20
2019-03-17T12:41:07.260Z,40.60
2019-03-17T12:43:35.111Z,40.20
2019-03-17T12:46:02.695Z,39.50
2019-03-17T12:48:30.150Z,40.60
2019-03-17T12:50:57.848Z,40.30
2019-03-17T12:53:25.412Z,40.00
2019-03-17T12:55:52.954Z,39.80
2019-03-17T12:58:20.473Z,39.00
2019-03-17T13:00:48.047Z,38.60
2019-03-17T13:03:16.022Z,38.50
2019-03-17T13:05:43.616Z,39.00
2019-03-17T13:08:11.200Z,38.30
2019-03-17T13:10:38.724Z,38.00
2019-03-17T13:13:07.804Z,38.80
2019-03-17T13:15:35.455Z,38.80
2019-03-17T13:18:02.997Z,38.40
2019-03-17T13:20:30.542Z,38.60
2019-03-17T13:22:58.106Z,39.00
2019-03-17T13:25:25.672Z,39.10
2019-03-17T13:27:53.232Z,38.80
2019-03-17T13:30:20.825Z,39.10
2019-03-17T13:32:49.370Z,39.90
2019-03-17T13:35:16.871Z,40.70
2019-03-17T13:37:44.431Z,41.50
2019-03-17T13:40:12.138Z,41.10
2019-03-17T13:42:39.768Z,41.00
2019-03-17T13:45:08.090Z,41.80
2019-03-17T13:47:35.733Z,41.90
2019-03-17T13:50:03.538Z,41.70
2019-03-17T13:52:31.179Z,41.70
2019-03-17T13:54:58.811Z,41.90
2019-03-17T13:57:26.441Z,41.80
2019-03-17T13:59:54.076Z,42.20
2019-03-17T14:02:21.639Z,42.40
2019-03-17T14:04:49.148Z,42.40
2019-03-17T14:07:16.829Z,42.60
2019-03-17T14:09:44.495Z,43.30
2019-03-17T14:12:12.062Z,43.20
2019-03-17T14:14:39.623Z,43.20
2019-03-17T14:17:07.138Z,43.40
2019-03-17T14:19:34.746Z,44.00
2019-03-17T14:22:02.229Z,43.50
2019-03-17T14:24:29.791Z,43.70
2019-03-17T14:26:57.328Z,44.00
2019-03-17T14:29:24.888Z,44.20
2019-03-17T14:31:52.382Z,43.90
2019-03-17T14:34:20.103Z,43.80
2019-03-17T14:36:47.823Z,43.60
2019-03-17T14:39:15.388Z,43.70
2019-03-17T14:41:42.921Z,42.70
2019-03-17T14:44:10.446Z,42.40
2019-03-17T14:46:37.968Z,42.20
2019-03-17T14:49:05.589Z,42.30
2019-03-17T14:51:33.242Z,42.20
2019-03-17T14:54:00.809Z,42.20
2019-03-17T14:56:28.416Z,42.20
2019-03-17T14:58:56.061Z,41.70
2019-03-17T15:01:23.740Z,41.90
2019-03-17T15:03:51.269Z,41.40
2019-03-17T15:06:18.782Z,41.50
2019-03-17T15:08:46.415Z,41.20
2019-03-17T15:11:14.239Z,41.60
2019-03-17T15:13:41.772Z,41.90
2019-03-17T15:16:09.360Z,40.80
2019-03-17T15:18:36.916Z,41.00
2019-03-17T15:21:04.454Z,40.90
2019-03-17T15:23:32.045Z,40.80
2019-03-17T15:25:59.727Z,40.90
2019-03-17T15:28:28.274Z,40.90
2019-03-17T15:31:10.288Z,40.80
2019-03-17T15:33:25.292Z,40.70
2019-03-17T15:35:52.883Z,41.00
2019-03-17T15:38:20.483Z,40.70
2019-03-17T15:40:48.004Z,40.40
2019-03-17T15:43:15.522Z,40.40
2019-03-17T15:45:43.096Z,40.20
2019-03-17T15:48:10.636Z,40.40
2019-03-17T15:50:38.329Z,40.60
2019-03-17T15:53:05.964Z,40.60
2019-03-17T15:55:35.620Z,40.80
2019-03-17T15:58:03.108Z,40.40
2019-03-17T16:00:30.670Z,41.40
2019-03-17T16:02:58.227Z,42.00
2019-03-17T16:05:25.808Z,41.30
2019-03-17T16:07:53.312Z,41.80
2019-03-17T16:10:20.872Z,40.60
2019-03-17T16:12:48.443Z,40.40
2019-03-17T16:15:16.149Z,40.30
2019-03-17T16:17:43.786Z,41.00
2019-03-17T16:20:13.300Z,41.20
2019-03-17T16:22:41.353Z,41.10
2019-03-17T16:25:09.292Z,41.30
2019-03-17T16:27:36.880Z,41.70
2019-03-17T16:30:05.563Z,41.40
2019-03-17T16:32:34.007Z,40.90
2019-03-17T16:35:01.759Z,42.20
2019-03-17T16:37:29.260Z,41.80
2019-03-17T16:39:56.817Z,42.30
2019-03-17T16:42:24.370Z,43.10
2019-03-17T16:44:51.879Z,43.70
2019-03-17T16:47:19.427Z,44.10
2019-03-17T16:49:47.068Z,45.10
2019-03-17T16:52:14.565Z,45.00
2019-03-17T16:54:42.052Z,45.30
2019-03-17T16:57:09.580Z,45.80
2019-03-17T16:59:37.138Z,46.60
2019-03-17T17:02:05.105Z,47.20
2019-03-17T17:04:32.619Z,47.80
2019-03-17T17:07:00.218Z,48.30
2019-03-17T17:09:27.719Z,48.70
2019-03-17T17:11:57.220Z,49.20
2019-03-17T17:14:24.761Z,49.90
2019-03-17T17:16:52.316Z,50.20
2019-03-17T17:19:19.865Z,48.00
2019-03-17T17:21:47.448Z,45.30
2019-03-17T17:24:15.043Z,43.50
2019-03-17T17:26:42.617Z,43.00
2019-03-17T17:29:10.127Z,42.70
2019-03-17T17:31:37.655Z,42.90
2019-03-17T17:34:06.454Z,42.60
2019-03-17T17:36:34.240Z,40.50
2019-03-17T17:39:01.751Z,42.80
2019-03-17T17:41:29.421Z,42.70
2019-03-17T17:43:57.042Z,43.40
2019-03-17T17:46:24.553Z,44.00
2019-03-17T17:48:52.068Z,43.90
2019-03-17T17:51:19.621Z,43.30
2019-03-17T17:53:47.120Z,44.20
2019-03-17T17:56:14.645Z,44.90
2019-03-17T17:58:42.237Z,45.30
2019-03-17T18:01:09.783Z,45.30
2019-03-17T18:03:37.356Z,45.90
2019-03-17T18:06:04.958Z,45.70
2019-03-17T18:08:32.580Z,45.90
2019-03-17T18:11:00.109Z,46.40
2019-03-17T18:13:27.693Z,46.70
2019-03-17T18:15:55.341Z,47.20
2019-03-17T18:18:22.928Z,46.90
2019-03-17T18:20:50.515Z,47.00
2019-03-17T18:23:18.659Z,47.30
2019-03-17T18:25:46.153Z,47.40
2019-03-17T18:28:13.720Z,47.80
2019-03-17T18:30:41.316Z,48.60
2019-03-17T18:33:08.989Z,48.50
2019-03-17T18:35:36.548Z,49.70
2019-03-17T18:38:04.123Z,49.40
2019-03-17T18:40:32.687Z,49.90
2019-03-17T18:43:00.272Z,50.20
2019-03-17T18:45:27.885Z,50.60
2019-03-17T18:47:57.616Z,50.50
2019-03-17T18:50:36.593Z,50.60
2019-03-17T18:53:04.092Z,50.20
2019-03-17T18:55:31.677Z,50.90
2019-03-17T18:57:59.234Z,50.40
2019-03-17T19:00:26.817Z,50.60
2019-03-17T19:02:54.488Z,50.10
2019-03-17T19:05:22.085Z,49.40
2019-03-17T19:07:51.270Z,50.20
2019-03-17T19:10:18.792Z,50.20
2019-03-17T19:12:46.595Z,50.00
2019-03-17T19:15:14.202Z,50.10
2019-03-17T19:17:41.813Z,50.40
2019-03-17T19:20:11.964Z,49.70
2019-03-17T19:22:39.549Z,49.40
2019-03-17T19:25:08.497Z,49.10
2019-03-17T19:27:36.146Z,49.40
2019-03-17T19:30:05.121Z,49.20
2019-03-17T19:32:34.348Z,49.50
2019-03-17T19:35:03.237Z,49.80
2019-03-17T19:37:32.434Z,48.60
2019-03-17T19:40:01.850Z,49.60
2019-03-17T19:42:31.262Z,51.80
2019-03-17T19:45:00.005Z,51.70
2019-03-17T19:47:28.662Z,52.10
2019-03-17T19:49:57.516Z,52.70
2019-03-17T19:52:26.677Z,52.60
2019-03-17T19:54:55.288Z,52.60
2019-03-17T19:57:23.845Z,52.40
2019-03-17T19:59:52.631Z,51.40
2019-03-17T20:02:21.317Z,52.00
2019-03-17T20:04:50.043Z,51.80
2019-03-17T20:07:18.481Z,51.90
2019-03-17T20:09:47.377Z,52.10
2019-03-17T20:12:16.182Z,51.80
2019-03-17T20:14:43.781Z,52.80
2019-03-17T20:17:11.337Z,51.80
2019-03-17T20:19:38.991Z,51.50
2019-03-17T20:22:06.526Z,51.60
2019-03-17T20:24:34.115Z,51.30
2019-03-17T20:27:01.730Z,51.40
2019-03-17T20:29:29.302Z,51.30
2019-03-17T20:31:56.889Z,51.20
2019-03-17T20:34:24.514Z,51.20
2019-03-17T20:36:52.106Z,51.30
2019-03-17T20:39:19.625Z,51.30
2019-03-17T20:41:47.251Z,51.30
2019-03-17T20:44:14.887Z,51.60
2019-03-17T20:46:42.638Z,51.60
2019-03-17T20:49:10.195Z,51.90
2019-03-17T20:51:37.830Z,52.10
2019-03-17T20:54:05.477Z,51.90
2019-03-17T20:56:33.051Z,52.20
2019-03-17T20:59:00.654Z,52.40
2019-03-17T21:01:28.387Z,52.50
2019-03-17T21:03:55.959Z,51.90
2019-03-17T21:06:24.750Z,52.90
2019-03-17T21:08:52.667Z,52.20
2019-03-17T21:11:20.219Z,52.30
2019-03-17T21:13:49.806Z,53.60
2019-03-17T21:16:22.507Z,55.00
2019-03-17T21:18:49.958Z,52.80
2019-03-17T21:21:17.499Z,52.90
2019-03-17T21:23:46.425Z,53.10
2019-03-17T21:26:14.253Z,53.10
2019-03-17T21:28:44.752Z,53.50
2019-03-17T21:31:12.344Z,53.40
2019-03-17T21:33:40.390Z,53.30
2019-03-17T21:36:07.967Z,53.40
2019-03-17T21:38:38.586Z,53.40
2019-03-17T21:41:09.063Z,53.50
2019-03-17T21:43:36.701Z,53.50
2019-03-17T21:46:04.421Z,53.00
2019-03-17T21:48:32.059Z,53.70
2019-03-17T21:50:59.695Z,53.80
2019-03-17T21:53:27.368Z,53.90
2019-03-17T21:55:55.041Z,53.50
2019-03-17T21:58:22.688Z,54.40
2019-03-17T22:00:50.538Z,53.80
2019-03-17T22:03:18.713Z,55.60
2019-03-17T22:05:46.178Z,54.10
2019-03-17T22:08:13.884Z,54.90
2019-03-17T22:10:41.522Z,55.50
2019-03-17T22:13:10.062Z,53.80
2019-03-17T22:15:39.118Z,53.70
2019-03-17T22:18:06.851Z,53.60
2019-03-17T22:20:36.596Z,53.80
2019-03-17T22:23:04.162Z,55.60
2019-03-17T22:25:31.872Z,54.00
2019-03-17T22:28:23.928Z,55.20
2019-03-17T22:32:08.933Z,53.90
2019-03-17T22:35:41.458Z,53.80
2019-03-17T22:38:35.499Z,53.60
2019-03-17T22:41:03.527Z,53.30
2019-03-17T22:43:36.435Z,53.40
2019-03-17T22:51:28.074Z,53.60
2019-03-17T22:53:55.667Z,53.60
2019-03-17T22:56:23.265Z,54.30
2019-03-17T22:58:50.838Z,54.40
2019-03-17T23:01:18.445Z,54.40
2019-03-17T23:03:46.113Z,53.90
2019-03-17T23:06:13.695Z,54.60
2019-03-17T23:08:41.242Z,54.50
2019-03-17T23:11:09.012Z,55.00
2019-03-17T23:13:36.557Z,54.80
2019-03-17T23:16:04.201Z,54.60
2019-03-17T23:18:31.833Z,54.90
2019-03-17T23:20:59.633Z,54.50
2019-03-17T23:23:27.227Z,54.30
2019-03-17T23:25:58.387Z,53.80
2019-03-17T23:28:33.712Z,54.40
2019-03-17T23:31:12.067Z,54.50
2019-03-17T23:33:49.045Z,54.70
2019-03-17T23:36:18.563Z,53.90
2019-03-17T23:38:47.340Z,53.50
2019-03-17T23:41:15.668Z,53.60
2019-03-17T23:46:54.633Z,53.60
2019-03-17T23:49:22.922Z,53.60
2019-03-17T23:51:51.073Z,53.50
2019-03-17T23:54:19.348Z,53.20
2019-03-17T23:56:47.325Z,52.70
2019-03-17T23:59:15.482Z,52.90
